Bissett, Canada
Current Conditions -  °F | °C
As of 7:13 AM on Thursday 30 Oct 2014 (Local Time) from CYRL Reporting Station
Light Snow Light Snow  
Wind Chill: 26°   Ceiling: 600
Heat Index: 32°   Visibility: 2mi
Dew Point: 30°   Wind: 6mph
Humidity: 93%   Direction: 320°NW
Pressure: 30.08"   Gusts: NA
Location:  51.02°N, 95.67°W
Report Text: CYRL 301213Z 32005KT 290V020 2SM -SN OVC006 M00/M01 A3008 RMK SN4SF4 -SN WET SLP205
Loading
Personal Weather Stations






























Interactive Weather Map
Tropical Storm Tracking
New forecast layout! Learn more

10-Day Weather Forecast

Advertisements
Track Severe Weather on mobile